Time;durP1;ratioP1;P1;durP2;ratioP2;P2;SDS_P1;SDS_P2;PMS_P1;PMS_P2;Temp;Humidity;BMP_temperature;BMP_pressure;BME280_temperature;BME280_humidity;BME280_pressure;Samples;Min_cycle;Max_cycle;Signal;HPM_P1;HPM_P2
2022/10/01 00:00:18;;;;;;;12.77;11.77;;;;;;;8.24;100.00;96457.50;4904365;29;20190;-72
2022/10/01 00:02:44;;;;;;;16.17;12.00;;;;;;;8.20;100.00;96462.34;4935799;29;20190;-72
2022/10/01 00:05:12;;;;;;;12.57;11.47;;;;;;;8.30;100.00;96467.84;4935939;29;20222;-72
2022/10/01 00:07:45;;;;;;;11.73;10.73;;;;;;;8.31;100.00;96473.88;4934464;29;20189;-72
2022/10/01 00:10:12;;;;;;;12.30;11.03;;;;;;;8.33;100.00;96477.88;4922769;29;20230;-73
2022/10/01 00:12:44;;;;;;;11.47;10.47;;;;;;;8.31;100.00;96479.09;4935246;29;20267;-72
2022/10/01 00:15:10;;;;;;;11.20;10.30;;;;;;;8.34;100.00;96474.25;4930581;29;20206;-72
2022/10/01 00:17:36;;;;;;;11.30;10.30;;;;;;;8.39;100.00;96472.78;4928375;29;20309;-72
2022/10/01 00:20:03;;;;;;;11.43;10.33;;;;;;;8.33;100.00;96464.81;4919502;29;20214;-72
2022/10/01 00:22:33;;;;;;;11.73;10.57;;;;;;;8.38;100.00;96452.91;4932710;29;20261;-72
2022/10/01 00:24:59;;;;;;;10.10;9.20;;;;;;;8.43;100.00;96458.25;4935386;29;20194;-72
2022/10/01 00:27:25;;;;;;;10.67;9.77;;;;;;;8.41;100.00;96462.94;4935510;29;20536;-72
2022/10/01 00:29:51;;;;;;;11.20;10.27;;;;;;;8.30;100.00;96461.88;4922342;29;20254;-72
2022/10/01 00:32:16;;;;;;;9.80;8.77;;;;;;;8.29;100.00;96466.25;4930588;29;20622;-72
2022/10/01 00:34:42;;;;;;;10.03;9.13;;;;;;;8.23;100.00;96471.56;4917710;29;20254;-72
2022/10/01 00:37:09;;;;;;;10.07;9.13;;;;;;;8.14;100.00;96460.59;4916672;29;20277;-72
2022/10/01 00:39:35;;;;;;;9.60;8.67;;;;;;;8.09;100.00;96455.22;4916604;29;20642;-73
2022/10/01 00:42:01;;;;;;;11.13;9.33;;;;;;;8.12;100.00;96448.78;4932539;29;20272;-72
2022/10/01 00:44:26;;;;;;;10.73;9.83;;;;;;;8.16;100.00;96450.75;4931145;29;20208;-73
2022/10/01 00:46:53;;;;;;;9.70;8.80;;;;;;;8.13;100.00;96451.19;4899298;29;20190;-72
2022/10/01 00:49:23;;;;;;;11.13;10.00;;;;;;;8.10;100.00;96450.81;4927106;29;20190;-72
2022/10/01 00:51:55;;;;;;;10.33;9.33;;;;;;;8.13;100.00;96453.00;4920560;29;20265;-72
2022/10/01 00:54:23;;;;;;;9.77;8.97;;;;;;;8.22;100.00;96451.69;4916546;29;20269;-72
2022/10/01 00:56:54;;;;;;;10.83;9.93;;;;;;;8.11;100.00;96468.06;4916962;29;20198;-72
2022/10/01 00:59:20;;;;;;;10.90;10.00;;;;;;;8.11;100.00;96471.50;4927098;29;20181;-72
2022/10/01 01:01:45;;;;;;;10.17;9.07;;;;;;;8.16;100.00;96471.63;4920827;29;20528;-72
2022/10/01 01:04:16;;;;;;;9.70;8.90;;;;;;;8.19;100.00;96465.19;4933192;29;20214;-72
2022/10/01 01:06:52;;;;;;;9.93;9.13;;;;;;;8.18;100.00;96460.97;4933660;29;20179;-72
2022/10/01 01:09:19;;;;;;;9.50;8.50;;;;;;;8.24;100.00;96457.50;4919981;29;20301;-72
2022/10/01 01:12:14;;;;;;;10.50;9.57;;;;;;;8.26;100.00;96452.81;4933409;29;20241;-72
2022/10/01 01:14:44;;;;;;;9.27;8.47;;;;;;;8.22;100.00;96457.69;4906666;29;20241;-72
2022/10/01 01:17:20;;;;;;;9.53;8.73;;;;;;;8.26;100.00;96447.59;4927644;29;20551;-73
2022/10/01 01:20:31;;;;;;;9.80;9.00;;;;;;;8.24;100.00;96462.72;4938533;29;20201;-73
2022/10/01 01:23:38;;;;;;;9.63;8.83;;;;;;;8.32;100.00;96457.19;4868945;29;20201;-72
2022/10/01 01:26:28;;;;;;;9.27;8.57;;;;;;;8.23;100.00;96455.88;4937791;29;20210;-72
2022/10/01 01:28:59;;;;;;;10.10;9.40;;;;;;;8.29;100.00;96453.19;4938191;29;20213;-72
2022/10/01 01:31:32;;;;;;;16.87;9.37;;;;;;;8.27;100.00;96449.19;4927663;29;20262;-73
2022/10/01 01:34:00;;;;;;;9.20;8.47;;;;;;;8.22;100.00;96442.03;4920864;29;20182;-72
2022/10/01 01:36:31;;;;;;;11.27;10.27;;;;;;;8.30;100.00;96441.75;4919689;29;20190;-72
2022/10/01 01:39:03;;;;;;;10.23;9.33;;;;;;;8.21;100.00;96434.41;4919675;29;20183;-73
2022/10/01 01:41:33;;;;;;;10.33;9.53;;;;;;;8.21;100.00;96431.81;4921468;29;20210;-73
2022/10/01 01:44:02;;;;;;;10.23;9.43;;;;;;;8.20;100.00;96422.38;4932195;29;20208;-73
2022/10/01 01:46:33;;;;;;;10.83;10.03;;;;;;;8.19;100.00;96413.75;4921527;29;20550;-73
2022/10/01 01:49:04;;;;;;;10.20;9.40;;;;;;;8.24;100.00;96410.50;4919313;29;20602;-73
2022/10/01 01:51:51;;;;;;;10.50;9.53;;;;;;;8.30;100.00;96407.03;4928721;29;20297;-73
2022/10/01 01:54:18;;;;;;;10.50;9.70;;;;;;;8.23;100.00;96403.69;4937783;29;20182;-73
2022/10/01 01:56:44;;;;;;;10.83;9.87;;;;;;;8.23;100.00;96401.06;4935451;29;20584;-73
2022/10/01 01:59:10;;;;;;;10.00;9.30;;;;;;;8.24;100.00;96395.63;4921009;29;20196;-72
2022/10/01 02:01:41;;;;;;;11.57;10.50;;;;;;;8.24;100.00;96397.44;4933170;29;20179;-73
2022/10/01 02:04:16;;;;;;;11.30;10.23;;;;;;;8.23;100.00;96391.41;4919014;29;20291;-72
2022/10/01 02:06:48;;;;;;;12.37;11.27;;;;;;;8.20;100.00;96386.63;4931850;29;20245;-72
2022/10/01 02:09:26;;;;;;;11.73;10.83;;;;;;;8.24;100.00;96385.19;4932894;29;20194;-72
2022/10/01 02:12:11;;;;;;;12.53;11.63;;;;;;;8.22;100.00;96389.03;4901730;29;20832;-73
2022/10/01 02:14:49;;;;;;;12.27;11.23;;;;;;;8.22;100.00;96387.22;4918202;29;20235;-73
2022/10/01 02:17:25;;;;;;;11.37;10.47;;;;;;;8.26;100.00;96383.13;4918440;29;20225;-73
2022/10/01 02:19:59;;;;;;;9.67;8.93;;;;;;;8.20;100.00;96383.22;4927021;29;20264;-73
2022/10/01 02:22:39;;;;;;;11.03;10.13;;;;;;;8.25;100.00;96378.13;4937714;29;20177;-73
2022/10/01 02:25:07;;;;;;;9.07;8.27;;;;;;;8.28;100.00;96381.09;4922547;29;20226;-73
2022/10/01 02:27:39;;;;;;;8.17;7.40;;;;;;;8.29;100.00;96382.72;4919122;29;20186;-75
2022/10/01 02:30:08;;;;;;;9.27;8.47;;;;;;;8.20;100.00;96378.78;4919047;29;20529;-73
2022/10/01 02:32:38;;;;;;;8.87;8.07;;;;;;;8.22;100.00;96381.19;4918585;29;20656;-72
2022/10/01 02:35:06;;;;;;;10.20;9.40;;;;;;;8.28;100.00;96378.50;4916125;29;20194;-72
2022/10/01 02:37:33;;;;;;;10.07;9.37;;;;;;;8.25;100.00;96375.50;4936929;29;20269;-72
2022/10/01 02:40:01;;;;;;;11.23;10.13;;;;;;;8.24;100.00;96382.56;4910907;29;20205;-72
2022/10/01 02:42:28;;;;;;;12.97;11.97;;;;;;;8.31;100.00;96385.91;4921405;29;20609;-72
2022/10/01 02:45:01;;;;;;;10.03;9.30;;;;;;;8.35;100.00;96373.22;4931150;29;20212;-72
2022/10/01 02:47:43;;;;;;;8.87;8.17;;;;;;;8.37;100.00;96379.00;4921044;29;20182;-73
2022/10/01 02:50:09;;;;;;;8.70;7.80;;;;;;;8.38;100.00;96371.97;4937017;29;20537;-72
2022/10/01 02:53:09;;;;;;;7.87;7.27;;;;;;;8.40;100.00;96381.19;4927671;29;20650;-73
2022/10/01 02:55:36;;;;;;;7.87;7.37;;;;;;;8.32;100.00;96373.66;4937214;29;20209;-72
2022/10/01 02:58:02;;;;;;;7.57;7.07;;;;;;;8.33;100.00;96370.03;4929709;29;20190;-72
2022/10/01 03:00:28;;;;;;;7.50;6.87;;;;;;;8.29;100.00;96368.84;4920545;29;20195;-72
2022/10/01 03:02:53;;;;;;;6.90;6.33;;;;;;;8.43;100.00;96374.69;4925719;29;20187;-72
2022/10/01 03:05:19;;;;;;;6.87;6.27;;;;;;;8.38;100.00;96364.13;4926611;29;20222;-72
2022/10/01 03:07:46;;;;;;;7.70;7.20;;;;;;;8.37;100.00;96375.59;4931652;29;20269;-72
2022/10/01 03:10:13;;;;;;;9.00;8.30;;;;;;;8.34;100.00;96376.84;4920880;29;20384;-72
2022/10/01 03:12:41;;;;;;;10.93;10.23;;;;;;;8.31;100.00;96378.06;4902418;29;20526;-72
2022/10/01 03:15:06;;;;;;;11.70;11.00;;;;;;;8.24;100.00;96374.75;4924148;29;20198;-72
2022/10/01 03:17:32;;;;;;;16.93;15.87;;;;;;;8.37;100.00;96372.97;4936942;29;20182;-73
2022/10/01 03:19:57;;;;;;;16.47;15.47;;;;;;;8.36;100.00;96369.56;4935540;29;20194;-72
2022/10/01 03:22:22;;;;;;;17.47;16.37;;;;;;;8.32;100.00;96371.84;4919484;29;20559;-72
2022/10/01 03:24:52;;;;;;;18.60;17.40;;;;;;;8.40;100.00;96362.91;4936432;29;20631;-72
2022/10/01 03:27:19;;;;;;;15.73;14.50;;;;;;;8.36;100.00;96356.50;4928387;29;20549;-72
2022/10/01 03:29:44;;;;;;;17.57;16.47;;;;;;;8.36;100.00;96350.53;4917746;29;20197;-72
2022/10/01 03:32:10;;;;;;;15.50;14.43;;;;;;;8.37;100.00;96347.66;4934932;29;20186;-72
2022/10/01 03:34:36;;;;;;;13.97;12.97;;;;;;;8.39;100.00;96347.44;4935929;29;20241;-72
2022/10/01 03:37:01;;;;;;;12.83;11.93;;;;;;;8.30;100.00;96347.75;4936229;29;20190;-72
2022/10/01 03:39:27;;;;;;;12.17;11.37;;;;;;;8.36;100.00;96343.47;4936025;29;20198;-72
2022/10/01 03:41:52;;;;;;;10.73;10.07;;;;;;;8.29;100.00;96353.19;4919662;29;20198;-72
2022/10/01 03:44:17;;;;;;;12.30;11.60;;;;;;;8.29;100.00;96355.78;4934987;29;20198;-72
2022/10/01 03:46:43;;;;;;;13.80;12.90;;;;;;;8.26;100.00;96346.59;4921105;29;20287;-72
2022/10/01 03:49:09;;;;;;;14.30;13.40;;;;;;;8.28;100.00;96341.94;4916988;29;20270;-72
2022/10/01 03:51:36;;;;;;;15.60;14.70;;;;;;;8.26;100.00;96338.75;4929830;29;20643;-72
2022/10/01 03:54:02;;;;;;;15.07;14.23;;;;;;;8.25;100.00;96333.75;4935680;29;20181;-74
2022/10/01 03:56:28;;;;;;;16.67;15.67;;;;;;;8.23;100.00;96331.38;4934154;29;20193;-73
2022/10/01 03:58:53;;;;;;;16.07;15.07;;;;;;;8.25;100.00;96325.91;4934792;29;20190;-72
2022/10/01 04:01:19;;;;;;;16.50;15.40;;;;;;;8.26;100.00;96325.69;4935291;29;20205;-73
2022/10/01 04:03:45;;;;;;;15.57;14.57;;;;;;;8.18;100.00;96327.84;4935511;29;20257;-72
2022/10/01 04:06:10;;;;;;;15.40;14.50;;;;;;;8.21;100.00;96324.78;4934061;29;20178;-72
2022/10/01 04:08:37;;;;;;;15.00;14.03;;;;;;;8.25;100.00;96326.72;4917266;29;20190;-72
2022/10/01 04:11:02;;;;;;;16.00;14.70;;;;;;;8.20;100.00;96333.63;4918099;29;20222;-73
2022/10/01 04:13:28;;;;;;;14.47;13.47;;;;;;;8.19;100.00;96338.03;4916347;29;20284;-72
2022/10/01 04:15:54;;;;;;;15.43;14.30;;;;;;;8.14;100.00;96330.06;4924062;29;20183;-72
2022/10/01 04:18:20;;;;;;;14.00;13.10;;;;;;;8.19;100.00;96319.00;4933914;29;20281;-71
2022/10/01 04:20:46;;;;;;;12.60;11.77;;;;;;;8.12;100.00;96319.09;4935222;29;20543;-72
2022/10/01 04:23:11;;;;;;;12.37;11.37;;;;;;;8.12;100.00;96315.69;4934914;29;20268;-72
2022/10/01 04:25:37;;;;;;;12.63;11.93;;;;;;;8.08;100.00;96312.69;4933915;29;20174;-72
2022/10/01 04:28:04;;;;;;;14.03;13.13;;;;;;;7.97;100.00;96310.06;4920217;29;20183;-72
2022/10/01 04:30:34;;;;;;;13.77;12.97;;;;;;;7.95;100.00;96315.50;4902493;29;20182;-72
2022/10/01 04:33:00;;;;;;;9.50;8.90;;;;;;;8.10;100.00;96312.47;4920698;29;20182;-72
2022/10/01 04:35:26;;;;;;;7.17;6.63;;;;;;;8.15;100.00;96307.38;4916563;29;20545;-72
2022/10/01 04:38:06;;;;;;;6.23;5.83;;;;;;;8.21;100.00;96309.09;4929646;29;20278;-73
2022/10/01 04:40:34;;;;;;;5.73;5.33;;;;;;;8.24;100.00;96309.47;4916206;29;20198;-72
2022/10/01 04:43:04;;;;;;;6.03;5.73;;;;;;;8.23;100.00;96297.44;4916952;29;20195;-71
2022/10/01 04:45:30;;;;;;;5.70;5.17;;;;;;;8.23;100.00;96310.50;4916277;29;20206;-71
2022/10/01 04:47:56;;;;;;;5.37;5.07;;;;;;;8.28;100.00;96315.84;4927767;29;20197;-72
2022/10/01 04:50:23;;;;;;;6.37;5.97;;;;;;;8.35;100.00;96321.00;4916922;29;20194;-72
2022/10/01 04:52:50;;;;;;;6.80;6.40;;;;;;;8.36;100.00;96306.91;4917505;29;20577;-72
2022/10/01 04:55:18;;;;;;;7.53;7.13;;;;;;;8.37;100.00;96313.72;4935286;29;20206;-72
2022/10/01 04:57:43;;;;;;;8.13;7.63;;;;;;;8.39;100.00;96309.06;4919586;29;20687;-72
2022/10/01 05:00:12;;;;;;;7.17;6.67;;;;;;;8.46;100.00;96307.16;4916383;29;20190;-72
2022/10/01 05:02:38;;;;;;;6.63;6.13;;;;;;;8.45;100.00;96310.00;4928015;29;20324;-72
2022/10/01 05:05:06;;;;;;;9.87;9.17;;;;;;;8.43;100.00;96312.81;4917294;29;20210;-72
2022/10/01 05:07:33;;;;;;;8.33;7.73;;;;;;;8.49;100.00;96313.75;4920745;29;20186;-72
2022/10/01 05:09:59;;;;;;;7.77;7.30;;;;;;;8.51;100.00;96312.50;4933778;29;20261;-72
2022/10/01 05:12:25;;;;;;;7.10;6.70;;;;;;;8.58;100.00;96312.41;4934888;29;20182;-72
2022/10/01 05:14:51;;;;;;;7.10;6.60;;;;;;;8.63;100.00;96305.50;4942421;29;20190;-72
2022/10/01 05:17:18;;;;;;;5.77;5.47;;;;;;;8.65;100.00;96305.25;4935525;29;20343;-72
2022/10/01 05:19:44;;;;;;;4.93;4.73;;;;;;;8.66;100.00;96301.63;4936270;29;20209;-72
2022/10/01 05:22:09;;;;;;;5.30;5.00;;;;;;;8.81;100.00;96307.19;4944289;29;20224;-72
2022/10/01 05:24:34;;;;;;;10.80;10.27;;;;;;;8.83;100.00;96309.56;4936621;29;20202;-72
2022/10/01 05:27:00;;;;;;;12.87;12.17;;;;;;;8.73;100.00;96312.75;4937941;29;20186;-72
2022/10/01 05:29:25;;;;;;;6.77;6.37;;;;;;;8.82;100.00;96315.81;4935506;29;20190;-72
2022/10/01 05:31:51;;;;;;;5.33;4.90;;;;;;;8.76;100.00;96310.47;4935496;29;20193;-72
2022/10/01 05:34:16;;;;;;;5.13;4.83;;;;;;;8.75;100.00;96300.25;4934852;29;20726;-72
2022/10/01 05:36:41;;;;;;;4.60;4.40;;;;;;;8.70;100.00;96303.53;4936262;29;20182;-72
2022/10/01 05:39:07;;;;;;;5.70;5.40;;;;;;;8.77;100.00;96299.00;4942721;29;20181;-72
2022/10/01 05:41:32;;;;;;;5.50;5.00;;;;;;;8.77;100.00;96298.22;4953512;29;20221;-72
2022/10/01 05:43:57;;;;;;;5.70;5.40;;;;;;;8.77;100.00;96300.84;4952456;29;20264;-72
2022/10/01 05:46:23;;;;;;;4.60;4.30;;;;;;;8.82;100.00;96300.16;4935677;29;20213;-72
2022/10/01 05:48:50;;;;;;;4.50;4.10;;;;;;;8.93;100.00;96299.34;4934959;29;20206;-72
2022/10/01 05:51:16;;;;;;;4.87;4.57;;;;;;;8.80;100.00;96292.56;4935726;29;20537;-72
2022/10/01 05:53:42;;;;;;;5.97;5.57;;;;;;;8.86;100.00;96301.31;4938363;29;20285;-72
2022/10/01 05:56:07;;;;;;;7.13;6.73;;;;;;;8.83;100.00;96289.47;4939320;29;20214;-72
2022/10/01 05:58:34;;;;;;;7.50;7.10;;;;;;;8.83;100.00;96288.69;4938252;29;20186;-72
2022/10/01 06:00:59;;;;;;;7.77;7.37;;;;;;;8.91;100.00;96277.91;4936682;29;20194;-72
2022/10/01 06:03:27;;;;;;;8.63;7.93;;;;;;;8.92;100.00;96276.84;4938715;29;20209;-73
2022/10/01 06:05:53;;;;;;;7.97;7.57;;;;;;;8.94;100.00;96267.75;4944478;29;20571;-71
2022/10/01 06:08:18;;;;;;;7.60;7.23;;;;;;;9.00;100.00;96266.06;4937856;29;20194;-72
2022/10/01 06:10:43;;;;;;;4.47;4.27;;;;;;;8.94;100.00;96249.47;4936416;29;20373;-72
2022/10/01 06:13:10;;;;;;;4.43;4.13;;;;;;;8.91;100.00;96244.72;4945171;29;20187;-71
2022/10/01 06:15:37;;;;;;;5.27;4.90;;;;;;;8.88;100.00;96239.13;4939200;29;20197;-72
2022/10/01 06:18:07;;;;;;;7.97;7.50;;;;;;;8.83;100.00;96233.81;4951428;29;20189;-72
2022/10/01 06:20:33;;;;;;;7.67;7.27;;;;;;;8.78;100.00;96229.25;4938043;29;20182;-72
2022/10/01 06:22:59;;;;;;;6.80;6.50;;;;;;;8.74;100.00;96228.13;4945544;29;20185;-72
2022/10/01 06:25:27;;;;;;;7.40;6.90;;;;;;;8.67;100.00;96228.25;4946086;29;20205;-73
2022/10/01 06:27:56;;;;;;;6.57;5.97;;;;;;;8.65;100.00;96224.25;4956466;29;20181;-72
2022/10/01 06:30:25;;;;;;;9.93;9.03;;;;;;;8.73;100.00;96218.72;4956096;29;20266;-72
2022/10/01 06:33:11;;;;;;;11.67;10.77;;;;;;;8.60;100.00;96221.53;4944175;29;20750;-72
2022/10/01 06:35:46;;;;;;;8.97;8.53;;;;;;;8.68;100.00;96205.53;4946789;29;20190;-72
2022/10/01 06:38:12;;;;;;;7.27;6.57;;;;;;;8.67;100.00;96209.97;4956203;29;20185;-72
2022/10/01 06:40:38;;;;;;;5.70;5.30;;;;;;;8.66;100.00;96210.19;4955901;29;20236;-72
2022/10/01 06:43:04;;;;;;;5.93;5.37;;;;;;;8.72;100.00;96212.69;4949981;29;20189;-72
2022/10/01 06:45:30;;;;;;;4.97;4.57;;;;;;;8.70;100.00;96206.09;4937755;29;20619;-72
2022/10/01 06:48:02;;;;;;;6.43;5.73;;;;;;;8.64;100.00;96210.41;4939458;29;20190;-73
2022/10/01 06:50:30;;;;;;;5.50;5.20;;;;;;;8.73;100.00;96203.03;4937658;29;20666;-74
2022/10/01 06:52:56;;;;;;;5.27;4.87;;;;;;;8.75;100.00;96209.59;4937702;29;20281;-72
2022/10/01 06:55:25;;;;;;;5.67;5.33;;;;;;;8.90;100.00;96205.75;4937592;29;20269;-72
2022/10/01 06:58:05;;;;;;;6.23;5.67;;;;;;;8.87;100.00;96203.56;4938256;29;20631;-73
2022/10/01 07:00:32;;;;;;;5.50;5.20;;;;;;;8.94;100.00;96207.66;4936178;29;20192;-73
2022/10/01 07:02:59;;;;;;;5.60;5.10;;;;;;;8.98;100.00;96213.22;4936868;29;20284;-72
2022/10/01 07:05:25;;;;;;;8.57;7.77;;;;;;;10.71;100.00;96207.34;4955181;29;20224;-71
2022/10/01 07:07:51;;;;;;;10.77;10.17;;;;;;;11.39;100.00;96214.75;4940109;29;20635;-71
2022/10/01 07:10:20;;;;;;;7.53;7.13;;;;;;;10.45;100.00;96221.91;4954947;29;20694;-73
2022/10/01 07:12:49;;;;;;;9.67;9.07;;;;;;;9.72;100.00;96221.97;4955102;29;20202;-74
2022/10/01 07:15:17;;;;;;;7.17;6.77;;;;;;;9.55;100.00;96221.91;4937679;29;20228;-74
2022/10/01 07:17:44;;;;;;;5.80;5.43;;;;;;;9.41;100.00;96220.63;4952343;29;20650;-74
2022/10/01 07:20:10;;;;;;;5.20;4.83;;;;;;;9.36;100.00;96216.06;4936874;29;20186;-74
2022/10/01 07:22:35;;;;;;;5.47;4.73;;;;;;;9.27;100.00;96216.66;4936774;29;20182;-73
2022/10/01 07:25:01;;;;;;;6.20;5.80;;;;;;;9.26;100.00;96217.69;4951615;29;20205;-73
2022/10/01 07:27:26;;;;;;;7.70;6.97;;;;;;;9.24;100.00;96225.78;4955688;29;20197;-74
2022/10/01 07:29:52;;;;;;;8.53;7.93;;;;;;;9.25;100.00;96216.88;4939144;29;20548;-75
2022/10/01 07:32:17;;;;;;;9.63;9.13;;;;;;;9.32;100.00;96214.94;4955899;29;20560;-75
2022/10/01 07:34:42;;;;;;;9.30;8.63;;;;;;;9.36;100.00;96210.06;4942679;29;20201;-75
2022/10/01 07:37:08;;;;;;;8.47;7.87;;;;;;;9.36;100.00;96204.84;4937705;29;20233;-75
2022/10/01 07:39:35;;;;;;;9.57;8.97;;;;;;;9.27;100.00;96199.16;4950899;29;20185;-75
2022/10/01 07:42:00;;;;;;;9.10;8.60;;;;;;;9.24;100.00;96189.19;4937331;29;20659;-74
2022/10/01 07:44:27;;;;;;;9.17;8.67;;;;;;;9.27;100.00;96200.97;4945790;29;20615;-74
2022/10/01 07:46:53;;;;;;;10.80;10.20;;;;;;;9.21;100.00;96189.63;4946406;29;20307;-74
2022/10/01 07:49:19;;;;;;;8.50;8.00;;;;;;;9.26;100.00;96187.09;4948622;29;20650;-74
2022/10/01 07:51:44;;;;;;;8.73;8.30;;;;;;;9.19;100.00;96184.63;4955223;29;20192;-75
2022/10/01 07:54:10;;;;;;;10.93;10.13;;;;;;;9.25;100.00;96195.97;4949269;29;21856;-74
2022/10/01 07:56:36;;;;;;;8.83;8.33;;;;;;;9.32;100.00;96204.47;4945478;29;20213;-73
2022/10/01 07:59:01;;;;;;;7.30;6.90;;;;;;;9.27;100.00;96196.53;4943509;29;20276;-74
2022/10/01 08:01:27;;;;;;;10.00;9.33;;;;;;;9.34;100.00;96194.59;4929814;29;20190;-73
2022/10/01 08:03:53;;;;;;;9.67;9.07;;;;;;;9.35;100.00;96198.00;4931338;29;20713;-72
2022/10/01 08:06:20;;;;;;;10.17;9.47;;;;;;;9.32;100.00;96207.09;4935162;29;20642;-72
2022/10/01 08:08:45;;;;;;;8.20;7.80;;;;;;;9.33;100.00;96200.84;4939267;29;20225;-71
2022/10/01 08:11:13;;;;;;;8.60;7.93;;;;;;;9.43;100.00;96195.81;4935499;29;20332;-72
2022/10/01 08:13:39;;;;;;;8.60;8.10;;;;;;;9.35;100.00;96192.78;4932496;29;20182;-72
2022/10/01 08:16:08;;;;;;;8.93;8.33;;;;;;;9.37;100.00;96190.69;4934896;29;20181;-72
2022/10/01 08:18:34;;;;;;;7.53;7.03;;;;;;;9.36;100.00;96202.22;4935338;29;20284;-73
2022/10/01 08:21:00;;;;;;;6.60;6.13;;;;;;;9.35;100.00;96204.03;4934792;29;20356;-74
2022/10/01 08:23:27;;;;;;;5.83;5.43;;;;;;;9.32;100.00;96198.47;4935207;29;20197;-71
2022/10/01 08:25:59;;;;;;;5.83;5.47;;;;;;;9.34;100.00;96204.25;4935536;29;20855;-70
2022/10/01 08:28:24;;;;;;;6.13;5.83;;;;;;;9.27;100.00;96204.38;4935338;29;20657;-71
2022/10/01 08:30:50;;;;;;;7.17;6.57;;;;;;;9.28;100.00;96205.19;4936398;29;20185;-71
2022/10/01 08:33:15;;;;;;;6.17;5.77;;;;;;;9.29;100.00;96204.97;4931944;29;20190;-72
2022/10/01 08:35:42;;;;;;;5.77;5.50;;;;;;;9.33;100.00;96207.91;4934111;29;20646;-72
2022/10/01 08:38:09;;;;;;;6.53;6.23;;;;;;;9.25;100.00;96213.50;4937884;29;20203;-73
2022/10/01 08:40:46;;;;;;;8.00;7.60;;;;;;;9.17;100.00;96219.88;4936798;29;20643;-73
2022/10/01 08:43:29;;;;;;;8.00;7.60;;;;;;;9.29;100.00;96220.66;4936371;29;20185;-72
2022/10/01 08:45:59;;;;;;;7.63;7.20;;;;;;;9.44;100.00;96228.78;4935515;29;20191;-73
2022/10/01 08:48:42;;;;;;;13.83;13.03;;;;;;;9.35;100.00;96211.88;4936219;29;20181;-73
2022/10/01 08:51:31;;;;;;;10.40;9.80;;;;;;;9.30;100.00;96218.84;4943540;29;20228;-72
2022/10/01 08:54:06;;;;;;;7.70;6.87;;;;;;;9.30;100.00;96208.38;4917353;29;20204;-72
2022/10/01 08:56:36;;;;;;;7.10;6.47;;;;;;;9.40;100.00;96221.63;4947169;29;20177;-72
2022/10/01 08:59:08;;;;;;;7.30;6.90;;;;;;;9.36;100.00;96212.69;4935115;29;20178;-72
2022/10/01 09:01:33;;;;;;;6.40;5.90;;;;;;;9.32;100.00;96222.00;4935209;29;20175;-71
2022/10/01 09:03:59;;;;;;;6.10;5.40;;;;;;;9.34;100.00;96214.72;4943713;29;20224;-72
2022/10/01 09:06:26;;;;;;;6.23;5.93;;;;;;;9.36;100.00;96210.06;4940351;29;20192;-72
2022/10/01 09:09:25;;;;;;;6.27;5.97;;;;;;;9.40;100.00;96214.59;4936736;29;20193;-72
2022/10/01 09:12:18;;;;;;;5.80;5.50;;;;;;;9.52;100.00;96209.31;4903702;29;20203;-72
2022/10/01 09:14:57;;;;;;;6.17;5.63;;;;;;;9.60;100.00;96228.03;4891552;29;20206;-72
2022/10/01 09:17:42;;;;;;;6.53;6.23;;;;;;;9.71;100.00;96228.22;4896587;29;20195;-72
2022/10/01 09:20:32;;;;;;;6.40;6.10;;;;;;;9.69;100.00;96227.69;4896185;29;20192;-73
2022/10/01 09:23:17;;;;;;;5.70;5.30;;;;;;;9.79;100.00;96240.94;4900934;29;20187;-71
2022/10/01 09:25:49;;;;;;;5.10;4.80;;;;;;;9.80;100.00;96237.31;4908666;29;20219;-72
2022/10/01 09:28:18;;;;;;;5.23;5.03;;;;;;;9.88;100.00;96232.47;4905602;29;20629;-73
2022/10/01 09:31:18;;;;;;;5.10;4.90;;;;;;;9.83;100.00;96244.66;4903913;29;20255;-72
2022/10/01 09:33:53;;;;;;;6.23;5.83;;;;;;;9.68;100.00;96239.16;4915141;29;20207;-72
2022/10/01 09:36:32;;;;;;;6.67;6.27;;;;;;;9.85;100.00;96234.78;4906406;29;20214;-72
2022/10/01 09:39:09;;;;;;;6.83;6.53;;;;;;;9.77;100.00;96245.59;4900167;29;20179;-71
2022/10/01 09:41:35;;;;;;;7.00;6.60;;;;;;;9.73;100.00;96245.28;4900543;29;20222;-72
2022/10/01 09:44:00;;;;;;;7.30;6.83;;;;;;;9.76;100.00;96251.88;4900068;29;20685;-73
2022/10/01 09:46:26;;;;;;;5.93;5.63;;;;;;;9.76;100.00;96257.09;4900730;29;20525;-72
2022/10/01 09:49:07;;;;;;;6.03;5.63;;;;;;;9.84;100.00;96257.53;4900219;29;20195;-72
2022/10/01 09:51:41;;;;;;;7.17;6.67;;;;;;;9.95;100.00;96258.50;4900292;29;20180;-72
2022/10/01 09:54:18;;;;;;;6.30;5.80;;;;;;;9.94;100.00;96252.47;4909492;29;20644;-73
2022/10/01 09:56:49;;;;;;;5.77;5.37;;;;;;;9.96;100.00;96258.28;4917468;29;20190;-73
2022/10/01 09:59:21;;;;;;;5.93;5.47;;;;;;;10.07;100.00;96258.44;4900862;29;20191;-73
2022/10/01 10:01:54;;;;;;;6.50;6.20;;;;;;;10.02;100.00;96262.56;4907006;29;20225;-73
2022/10/01 10:04:24;;;;;;;6.57;6.27;;;;;;;9.90;100.00;96256.59;4914980;29;20204;-73
2022/10/01 10:07:01;;;;;;;8.90;8.40;;;;;;;10.07;100.00;96254.00;4903633;29;20191;-74
2022/10/01 10:09:32;;;;;;;11.00;10.37;;;;;;;10.02;100.00;96264.41;4914702;29;20682;-75
2022/10/01 10:11:58;;;;;;;10.90;10.33;;;;;;;10.08;100.00;96267.91;4936991;29;20186;-73
2022/10/01 10:14:43;;;;;;;10.93;10.33;;;;;;;10.08;100.00;96262.66;4922760;29;20213;-73
2022/10/01 10:17:20;;;;;;;8.80;8.37;;;;;;;10.08;100.00;96270.50;4935508;29;20236;-74
2022/10/01 10:19:50;;;;;;;10.63;9.93;;;;;;;10.07;100.00;96280.19;4931860;29;20179;-74
2022/10/01 10:22:26;;;;;;;10.00;9.43;;;;;;;10.10;100.00;96273.66;4920235;29;20182;-75
2022/10/01 10:24:53;;;;;;;7.50;7.10;;;;;;;10.06;100.00;96265.50;4918811;29;20730;-73
2022/10/01 10:27:29;;;;;;;6.27;5.97;;;;;;;10.06;100.00;96272.56;4936882;29;20193;-76
2022/10/01 10:30:04;;;;;;;6.17;5.87;;;;;;;10.13;100.00;96275.84;4930456;29;20178;-73
2022/10/01 10:32:30;;;;;;;6.37;6.07;;;;;;;10.11;100.00;96283.91;4928992;29;20218;-73
2022/10/01 10:35:00;;;;;;;6.70;6.40;;;;;;;10.18;100.00;96287.22;4937198;29;20194;-73
2022/10/01 10:37:28;;;;;;;6.90;6.40;;;;;;;10.13;100.00;96289.72;4902668;29;20644;-73
2022/10/01 10:39:56;;;;;;;7.00;6.50;;;;;;;10.17;100.00;96279.59;4925717;29;20556;-73
2022/10/01 10:42:23;;;;;;;8.40;8.00;;;;;;;10.18;100.00;96278.56;4929117;29;20277;-73
2022/10/01 10:44:52;;;;;;;9.37;8.87;;;;;;;10.20;100.00;96276.50;4934532;29;20202;-74
2022/10/01 10:47:19;;;;;;;7.67;7.27;;;;;;;10.32;100.00;96274.59;4936285;29;20193;-74
2022/10/01 10:49:53;;;;;;;9.90;9.43;;;;;;;10.45;100.00;96261.19;4921266;29;20270;-72
2022/10/01 10:52:28;;;;;;;9.27;8.73;;;;;;;10.55;100.00;96273.66;4925856;29;20182;-71
2022/10/01 10:54:55;;;;;;;7.40;7.07;;;;;;;10.67;100.00;96258.66;4918947;29;20205;-72
2022/10/01 10:57:33;;;;;;;6.80;6.30;;;;;;;10.69;100.00;96262.63;4928504;29;20277;-72
2022/10/01 10:59:58;;;;;;;6.40;5.90;;;;;;;10.69;100.00;96257.41;4922280;29;20174;-71
2022/10/01 11:02:29;;;;;;;5.73;5.43;;;;;;;10.72;100.00;96253.47;4909491;29;20201;-71
2022/10/01 11:05:16;;;;;;;6.00;5.60;;;;;;;10.94;100.00;96259.56;4921469;29;20285;-71
2022/10/01 11:07:44;;;;;;;6.93;6.43;;;;;;;11.08;100.00;96250.34;4918721;29;20194;-72
2022/10/01 11:10:26;;;;;;;12.60;11.97;;;;;;;11.33;100.00;96246.41;4932000;29;20694;-72
2022/10/01 11:13:33;;;;;;;9.07;8.57;;;;;;;11.31;100.00;96248.53;4941226;29;20202;-72
2022/10/01 11:16:26;;;;;;;9.27;8.77;;;;;;;11.39;100.00;96241.00;4891494;29;20288;-72
2022/10/01 11:19:04;;;;;;;9.20;8.67;;;;;;;11.46;100.00;96248.69;4873267;29;20576;-71
2022/10/01 11:21:47;;;;;;;4.60;4.40;;;;;;;11.30;100.00;96247.72;4877439;29;20357;-71
2022/10/01 11:24:44;;;;;;;5.43;5.20;;;;;;;11.18;100.00;96241.78;4891617;29;20680;-71
2022/10/01 11:27:28;;;;;;;5.00;4.80;;;;;;;11.39;100.00;96248.06;4883685;29;20203;-71
2022/10/01 11:30:04;;;;;;;6.40;6.00;;;;;;;11.46;100.00;96243.44;4877386;29;20653;-71
2022/10/01 11:32:44;;;;;;;8.73;8.23;;;;;;;11.45;100.00;96242.66;4878197;29;20210;-71
2022/10/01 11:35:41;;;;;;;10.83;10.23;;;;;;;11.30;100.00;96255.59;4888679;29;20211;-72
2022/10/01 11:38:21;;;;;;;13.03;12.40;;;;;;;11.32;100.00;96240.38;4885041;29;20215;-71
2022/10/01 11:40:53;;;;;;;10.67;10.17;;;;;;;11.48;100.00;96250.00;4888708;29;20196;-71